createdAt,value
2018-06-16T00:00:46.155Z,44.90
2018-06-16T00:03:14.319Z,45.00
2018-06-16T00:05:42.440Z,44.90
2018-06-16T00:08:10.552Z,45.10
2018-06-16T00:10:38.636Z,45.30
2018-06-16T00:13:06.752Z,45.20
2018-06-16T00:15:34.824Z,45.00
2018-06-16T00:18:02.923Z,45.00
2018-06-16T00:20:31.054Z,45.20
2018-06-16T00:22:59.155Z,45.40
2018-06-16T00:25:27.272Z,45.40
2018-06-16T00:27:55.392Z,44.90
2018-06-16T00:30:23.495Z,45.40
2018-06-16T00:32:51.607Z,45.50
2018-06-16T00:35:19.702Z,45.50
2018-06-16T00:37:47.841Z,45.30
2018-06-16T00:40:15.939Z,45.40
2018-06-16T00:42:44.039Z,45.30
2018-06-16T00:45:12.139Z,45.60
2018-06-16T00:47:40.301Z,45.90
2018-06-16T00:50:08.420Z,45.90
2018-06-16T00:52:36.715Z,45.80
2018-06-16T00:55:05.363Z,45.80
2018-06-16T00:57:48.051Z,45.80
2018-06-16T01:00:17.387Z,46.00
2018-06-16T01:02:45.676Z,45.90
2018-06-16T01:05:13.776Z,45.90
2018-06-16T01:07:41.925Z,45.80
2018-06-16T01:10:11.004Z,45.80
2018-06-16T01:12:39.511Z,45.90
2018-06-16T01:15:07.824Z,45.90
2018-06-16T01:17:35.935Z,45.70
2018-06-16T01:20:04.567Z,45.90
2018-06-16T01:22:32.675Z,46.30
2018-06-16T01:25:00.825Z,46.00
2018-06-16T01:27:29.527Z,46.10
2018-06-16T01:29:57.849Z,46.00
2018-06-16T01:32:25.936Z,45.80
2018-06-16T01:34:54.035Z,45.80
2018-06-16T01:37:22.120Z,46.10
2018-06-16T01:39:50.219Z,45.70
2018-06-16T01:42:18.300Z,45.80
2018-06-16T01:44:46.391Z,45.70
2018-06-16T01:47:14.493Z,45.80
2018-06-16T01:49:42.556Z,45.90
2018-06-16T01:54:38.619Z,46.30
2018-06-16T01:57:06.696Z,46.10
2018-06-16T01:59:34.800Z,46.20
2018-06-16T02:02:08.623Z,46.10
2018-06-16T02:04:36.714Z,46.70
2018-06-16T02:07:04.844Z,46.70
2018-06-16T02:12:00.895Z,47.30
2018-06-16T02:14:28.983Z,46.60
2018-06-16T02:16:57.348Z,46.80
2018-06-16T02:19:25.437Z,46.70
2018-06-16T02:24:21.430Z,46.70
2018-06-16T02:26:49.527Z,46.70
2018-06-16T02:29:17.621Z,46.80
2018-06-16T02:34:13.598Z,46.90
2018-06-16T02:36:41.676Z,47.00
2018-06-16T02:39:11.091Z,46.80
2018-06-16T02:41:39.215Z,46.80
2018-06-16T02:44:07.327Z,46.70
2018-06-16T02:46:35.411Z,46.40
2018-06-16T02:49:03.507Z,46.70
2018-06-16T02:51:31.688Z,46.90
2018-06-16T02:53:59.767Z,46.90
2018-06-16T02:56:27.861Z,46.90
2018-06-16T02:58:55.981Z,46.90
2018-06-16T03:01:24.288Z,47.00
2018-06-16T03:03:52.389Z,47.10
2018-06-16T03:06:20.536Z,47.00
2018-06-16T03:08:48.650Z,46.90
2018-06-16T03:11:16.743Z,46.70
2018-06-16T03:13:44.843Z,47.20
2018-06-16T03:16:12.943Z,47.10
2018-06-16T03:18:41.051Z,46.80
2018-06-16T03:21:09.359Z,47.30
2018-06-16T03:23:37.547Z,47.40
2018-06-16T03:26:05.756Z,47.50
2018-06-16T03:28:33.971Z,47.30
2018-06-16T03:31:02.062Z,47.40
2018-06-16T03:33:30.295Z,47.50
2018-06-16T03:35:58.388Z,47.40
2018-06-16T03:40:54.644Z,47.60
2018-06-16T03:43:22.811Z,48.30
2018-06-16T03:45:50.913Z,47.70
2018-06-16T03:48:19.016Z,47.50
2018-06-16T03:50:47.088Z,47.60
2018-06-16T03:53:15.200Z,48.40
2018-06-16T03:55:43.301Z,47.90
2018-06-16T03:58:11.429Z,48.50
2018-06-16T04:00:39.535Z,48.00
2018-06-16T04:03:07.752Z,48.10
2018-06-16T04:05:35.857Z,48.10
2018-06-16T04:08:03.955Z,48.20
2018-06-16T04:10:32.036Z,48.30
2018-06-16T04:13:00.159Z,48.40
2018-06-16T04:17:56.224Z,48.40
2018-06-16T04:20:24.320Z,48.40
2018-06-16T04:22:52.419Z,48.90
2018-06-16T04:25:20.502Z,48.50
2018-06-16T04:27:48.616Z,48.50
2018-06-16T04:30:16.728Z,48.70
2018-06-16T04:32:44.846Z,49.10
2018-06-16T04:37:40.909Z,48.80
2018-06-16T04:40:09.030Z,48.90
2018-06-16T04:42:37.145Z,49.20
2018-06-16T04:45:05.633Z,48.80
2018-06-16T04:47:33.845Z,49.00
2018-06-16T04:50:01.951Z,49.40
2018-06-16T04:52:30.052Z,49.00
2018-06-16T04:54:58.148Z,49.20
2018-06-16T04:57:26.351Z,49.20
2018-06-16T04:59:54.451Z,49.10
2018-06-16T05:02:22.556Z,49.60
2018-06-16T05:04:50.634Z,49.50
2018-06-16T05:07:18.755Z,49.30
2018-06-16T05:09:46.843Z,49.60
2018-06-16T05:12:14.923Z,49.70
2018-06-16T05:14:43.028Z,49.50
2018-06-16T05:17:11.182Z,49.10
2018-06-16T05:19:39.300Z,49.40
2018-06-16T05:22:07.416Z,49.90
2018-06-16T05:24:35.520Z,49.80
2018-06-16T05:27:03.611Z,49.70
2018-06-16T05:29:31.749Z,50.60
2018-06-16T05:31:59.849Z,50.10
2018-06-16T05:34:27.999Z,50.00
2018-06-16T05:36:56.096Z,50.50
2018-06-16T05:39:24.307Z,50.10
2018-06-16T05:41:52.394Z,50.30
2018-06-16T05:44:20.526Z,50.60
2018-06-16T05:46:48.627Z,50.40
2018-06-16T05:49:16.739Z,50.60
2018-06-16T05:51:44.844Z,50.30
2018-06-16T05:54:12.969Z,50.00
2018-06-16T05:56:41.055Z,49.80
2018-06-16T05:59:09.159Z,49.60
2018-06-16T06:01:37.242Z,49.90
2018-06-16T06:04:05.552Z,49.80
2018-06-16T06:06:33.664Z,49.70
2018-06-16T06:09:01.778Z,50.70
2018-06-16T06:11:29.868Z,49.90
2018-06-16T06:13:58.111Z,50.00
2018-06-16T06:16:26.176Z,49.70
2018-06-16T06:18:54.526Z,50.40
2018-06-16T06:21:22.611Z,50.50
2018-06-16T06:23:50.712Z,51.30
2018-06-16T06:26:18.825Z,50.10
2018-06-16T06:28:46.926Z,50.00
2018-06-16T06:31:15.055Z,50.00
2018-06-16T06:33:43.267Z,50.10
2018-06-16T06:36:11.355Z,49.70
2018-06-16T06:38:39.435Z,50.00
2018-06-16T06:43:35.422Z,49.30
2018-06-16T06:46:03.535Z,49.40
2018-06-16T06:48:31.679Z,49.40
2018-06-16T06:50:59.775Z,49.00
2018-06-16T06:53:27.896Z,48.90
2018-06-16T06:58:23.838Z,49.80
2018-06-16T07:00:51.960Z,49.60
2018-06-16T07:03:20.043Z,49.30
2018-06-16T07:05:48.140Z,49.60
2018-06-16T07:08:16.244Z,49.20
2018-06-16T07:10:44.434Z,49.00
2018-06-16T07:13:12.485Z,49.50
2018-06-16T07:15:40.599Z,49.30
2018-06-16T07:18:08.714Z,49.50
2018-06-16T07:20:36.799Z,49.60
2018-06-16T07:23:04.891Z,49.60
2018-06-16T07:25:32.978Z,49.50
2018-06-16T07:30:28.927Z,49.60
2018-06-16T07:32:57.020Z,49.80
2018-06-16T07:35:25.131Z,49.60
2018-06-16T07:37:53.244Z,48.90
2018-06-16T07:40:21.337Z,48.90
2018-06-16T07:45:17.590Z,49.30
2018-06-16T07:50:20.296Z,49.50
2018-06-16T07:52:48.363Z,48.80
2018-06-16T07:55:16.503Z,48.80
2018-06-16T07:57:44.625Z,48.80
2018-06-16T08:00:12.736Z,48.90
2018-06-16T08:02:40.817Z,48.90
2018-06-16T08:05:09.132Z,48.80
2018-06-16T08:07:37.237Z,48.60
2018-06-16T08:10:05.371Z,48.90
2018-06-16T08:15:01.635Z,48.80
2018-06-16T08:17:29.737Z,48.60
2018-06-16T08:19:57.885Z,48.60
2018-06-16T08:22:26.028Z,49.10
2018-06-16T08:24:54.425Z,48.60
2018-06-16T08:27:22.528Z,48.60
2018-06-16T08:29:50.639Z,48.40
2018-06-16T08:32:18.915Z,48.10
2018-06-16T08:34:47.272Z,47.90
2018-06-16T08:37:15.319Z,47.70
2018-06-16T08:39:43.409Z,47.80
2018-06-16T08:42:11.497Z,47.60
2018-06-16T08:44:39.659Z,47.60
2018-06-16T08:47:07.772Z,47.60
2018-06-16T08:49:35.975Z,47.60
2018-06-16T08:52:04.188Z,47.30
2018-06-16T08:54:32.272Z,47.40
2018-06-16T08:57:00.392Z,47.00
2018-06-16T08:59:28.492Z,47.00
2018-06-16T09:01:56.635Z,46.90
2018-06-16T09:06:52.607Z,46.80
2018-06-16T09:09:20.727Z,46.90
2018-06-16T09:11:48.843Z,47.00
2018-06-16T09:14:16.925Z,47.10
2018-06-16T09:16:45.013Z,47.30
2018-06-16T09:19:13.106Z,46.70
2018-06-16T09:24:09.105Z,46.80
2018-06-16T09:29:05.380Z,46.60
2018-06-16T09:31:34.283Z,46.50
2018-06-16T09:34:02.391Z,46.30
2018-06-16T09:36:30.483Z,46.00
2018-06-16T09:38:58.577Z,46.00
2018-06-16T09:41:26.719Z,45.90
2018-06-16T09:43:54.795Z,46.00
2018-06-16T09:48:50.766Z,45.80
2018-06-16T09:51:18.868Z,45.70
2018-06-16T09:53:46.963Z,45.60
2018-06-16T09:56:15.055Z,45.70
2018-06-16T09:58:43.176Z,45.60
2018-06-16T10:01:11.228Z,45.30
2018-06-16T10:03:39.345Z,45.50
2018-06-16T10:06:07.441Z,45.40
2018-06-16T10:08:35.541Z,45.50
2018-06-16T10:11:03.627Z,45.00
2018-06-16T10:13:31.748Z,45.00
2018-06-16T10:15:59.877Z,45.10
2018-06-16T10:18:27.908Z,45.00
2018-06-16T10:20:56.017Z,44.90
2018-06-16T10:23:24.128Z,44.90
2018-06-16T10:25:52.211Z,45.00
2018-06-16T10:28:20.331Z,45.00
2018-06-16T10:30:48.423Z,44.90
2018-06-16T10:33:16.528Z,44.80
2018-06-16T10:35:44.616Z,44.60
2018-06-16T10:38:12.699Z,44.30
2018-06-16T10:40:40.807Z,44.20
2018-06-16T10:43:08.895Z,44.20
2018-06-16T10:45:36.980Z,44.20
2018-06-16T10:48:05.077Z,44.20
2018-06-16T10:50:33.175Z,44.00
2018-06-16T10:53:01.284Z,43.80
2018-06-16T10:55:29.366Z,43.70
2018-06-16T10:57:57.461Z,43.60
2018-06-16T11:00:25.555Z,43.30
2018-06-16T11:02:53.647Z,43.20
2018-06-16T11:05:21.750Z,42.90
2018-06-16T11:07:49.876Z,42.80
2018-06-16T11:10:17.935Z,42.40
2018-06-16T11:12:46.032Z,42.30
2018-06-16T11:15:14.104Z,42.30
2018-06-16T11:17:42.188Z,42.00
2018-06-16T11:22:38.164Z,42.00
2018-06-16T11:25:06.444Z,41.70
2018-06-16T11:27:34.541Z,41.00
2018-06-16T11:30:02.650Z,40.90
2018-06-16T11:32:30.772Z,40.30
2018-06-16T11:37:26.739Z,38.70
2018-06-16T11:39:54.859Z,38.40
2018-06-16T11:42:22.963Z,38.00
2018-06-16T11:44:51.316Z,38.40
2018-06-16T11:47:19.443Z,38.10
2018-06-16T11:49:47.536Z,37.60
2018-06-16T11:52:15.619Z,37.90
2018-06-16T11:54:43.717Z,37.90
2018-06-16T11:57:11.835Z,37.80
2018-06-16T12:02:07.881Z,37.00
2018-06-16T12:04:35.988Z,37.90
2018-06-16T12:07:04.079Z,37.30
2018-06-16T12:09:32.175Z,37.40
2018-06-16T12:12:00.243Z,37.50
2018-06-16T12:14:28.365Z,36.80
2018-06-16T12:16:56.448Z,37.20
2018-06-16T12:19:24.544Z,37.20
2018-06-16T12:21:52.631Z,36.80
2018-06-16T12:24:20.753Z,36.50
2018-06-16T12:26:48.960Z,37.00
2018-06-16T12:29:17.075Z,37.20
2018-06-16T12:31:45.164Z,37.40
2018-06-16T12:34:13.260Z,37.70
2018-06-16T12:36:41.373Z,37.80
2018-06-16T12:39:10.500Z,38.10
2018-06-16T12:41:38.599Z,38.70
2018-06-16T12:44:06.804Z,39.50
2018-06-16T12:46:34.891Z,40.00
2018-06-16T12:49:02.988Z,41.30
2018-06-16T12:51:31.095Z,41.20
2018-06-16T12:53:59.235Z,41.90
2018-06-16T12:56:27.793Z,41.90
2018-06-16T12:58:55.864Z,42.70
2018-06-16T13:01:23.959Z,43.30
2018-06-16T13:03:52.047Z,43.30
2018-06-16T13:06:20.128Z,43.30
2018-06-16T13:08:48.225Z,44.10
2018-06-16T13:11:16.324Z,42.80
2018-06-16T13:13:44.427Z,42.80
2018-06-16T13:16:12.532Z,42.60
2018-06-16T13:18:40.616Z,42.90
2018-06-16T13:21:08.706Z,43.20
2018-06-16T13:23:37.375Z,43.40
2018-06-16T13:26:05.446Z,43.50
2018-06-16T13:28:33.544Z,43.50
2018-06-16T13:31:01.639Z,43.30
2018-06-16T13:33:29.735Z,43.40
2018-06-16T13:35:57.855Z,43.60
2018-06-16T13:38:25.927Z,43.60
2018-06-16T13:40:54.055Z,43.40
2018-06-16T13:43:22.141Z,44.10
2018-06-16T13:45:50.243Z,43.30
2018-06-16T13:48:18.412Z,43.10
2018-06-16T13:50:46.591Z,42.90
2018-06-16T13:53:14.686Z,42.70
2018-06-16T13:55:42.856Z,42.70
2018-06-16T13:58:10.951Z,42.10
2018-06-16T14:00:39.075Z,42.20
2018-06-16T14:03:07.150Z,42.00
2018-06-16T14:08:03.148Z,42.00
2018-06-16T14:10:31.251Z,43.00
2018-06-16T14:12:59.347Z,42.40
2018-06-16T14:15:27.448Z,42.80
2018-06-16T14:17:55.557Z,42.40
2018-06-16T14:20:23.764Z,42.40
2018-06-16T14:22:51.855Z,42.10
2018-06-16T14:25:19.980Z,42.30
2018-06-16T14:27:48.074Z,42.20
2018-06-16T14:30:16.186Z,42.10
2018-06-16T14:32:44.285Z,42.20
2018-06-16T14:35:12.376Z,42.30
2018-06-16T14:37:40.486Z,42.50
2018-06-16T14:40:08.584Z,42.60
2018-06-16T14:42:36.704Z,42.20
2018-06-16T14:45:04.871Z,41.00
2018-06-16T14:47:32.979Z,41.40
2018-06-16T14:50:01.228Z,41.00
2018-06-16T14:52:29.302Z,39.90
2018-06-16T14:54:57.400Z,39.40
2018-06-16T15:02:21.263Z,38.90
2018-06-16T15:04:49.587Z,38.60
2018-06-16T15:09:52.050Z,38.90
2018-06-16T15:12:20.171Z,39.00
2018-06-16T15:14:48.263Z,39.00
2018-06-16T15:17:16.356Z,38.70
2018-06-16T15:19:44.441Z,38.40
2018-06-16T15:22:12.529Z,38.80
2018-06-16T15:24:40.620Z,38.70
2018-06-16T15:27:08.835Z,38.20
2018-06-16T15:29:36.937Z,37.90
2018-06-16T15:32:05.029Z,37.90
2018-06-16T15:34:33.133Z,37.90
2018-06-16T15:37:01.244Z,38.30
2018-06-16T15:39:29.375Z,39.10
2018-06-16T15:41:57.432Z,39.10
2018-06-16T15:44:25.615Z,39.00
2018-06-16T15:46:53.712Z,38.50
2018-06-16T15:49:21.783Z,38.80
2018-06-16T15:51:49.904Z,38.60
2018-06-16T15:54:18.013Z,38.30
2018-06-16T15:56:46.139Z,38.70
2018-06-16T15:59:14.289Z,38.70
2018-06-16T16:01:42.387Z,38.70
2018-06-16T16:04:10.513Z,38.90
2018-06-16T16:06:38.608Z,39.00
2018-06-16T16:09:07.236Z,39.20
2018-06-16T16:11:35.743Z,39.00
2018-06-16T16:14:03.986Z,39.00
2018-06-16T16:16:32.100Z,39.30
2018-06-16T16:19:00.191Z,39.20
2018-06-16T16:21:28.336Z,39.10
2018-06-16T16:23:56.441Z,39.20
2018-06-16T16:26:24.540Z,39.30
2018-06-16T16:28:52.652Z,39.30
2018-06-16T16:31:20.761Z,39.30
2018-06-16T16:33:48.876Z,39.10
2018-06-16T16:36:17.010Z,39.20
2018-06-16T16:38:45.127Z,39.20
2018-06-16T16:41:13.199Z,39.30
2018-06-16T16:43:41.333Z,39.30
2018-06-16T16:46:09.403Z,39.10
2018-06-16T16:48:37.507Z,39.10
2018-06-16T16:51:05.635Z,39.30
2018-06-16T16:53:33.722Z,39.30
2018-06-16T16:56:01.847Z,39.80
2018-06-16T17:01:04.631Z,39.00
2018-06-16T17:03:32.738Z,39.30
2018-06-16T17:06:00.904Z,39.30
2018-06-16T17:08:29.359Z,39.30
2018-06-16T17:10:57.475Z,39.50
2018-06-16T17:13:25.596Z,39.30
2018-06-16T17:15:53.695Z,39.40
2018-06-16T17:18:21.803Z,39.40
2018-06-16T17:20:49.999Z,39.40
2018-06-16T17:23:18.450Z,39.50
2018-06-16T17:25:46.567Z,39.40
2018-06-16T17:28:14.656Z,39.40
2018-06-16T17:30:42.787Z,39.60
2018-06-16T17:33:10.897Z,39.50
2018-06-16T17:35:39.073Z,39.60
2018-06-16T17:38:07.449Z,39.60
2018-06-16T17:40:35.556Z,39.80
2018-06-16T17:43:03.675Z,39.70
2018-06-16T17:45:31.777Z,39.80
2018-06-16T17:50:27.759Z,39.80
2018-06-16T17:55:24.495Z,39.80
2018-06-16T17:57:52.590Z,39.90
2018-06-16T18:00:20.723Z,39.90
2018-06-16T18:02:48.918Z,39.90
2018-06-16T18:05:17.026Z,39.60
2018-06-16T18:07:45.112Z,39.80
2018-06-16T18:10:13.288Z,39.80
2018-06-16T18:12:41.391Z,40.00
2018-06-16T18:15:09.473Z,40.00
2018-06-16T18:17:37.579Z,39.90
2018-06-16T18:20:05.796Z,40.10
2018-06-16T18:22:33.898Z,40.10
2018-06-16T18:25:02.025Z,40.10
2018-06-16T18:27:30.132Z,40.20
2018-06-16T18:32:26.156Z,40.30
2018-06-16T18:34:54.271Z,40.40
2018-06-16T18:37:22.352Z,40.60
2018-06-16T18:39:50.458Z,40.70
2018-06-16T18:42:18.556Z,40.70
2018-06-16T18:44:46.655Z,40.70
2018-06-16T18:47:14.751Z,40.80
2018-06-16T18:49:42.862Z,40.80
2018-06-16T18:52:10.948Z,41.00
2018-06-16T18:54:39.047Z,41.00
2018-06-16T18:57:07.131Z,41.00
2018-06-16T18:59:35.239Z,41.00
2018-06-16T19:02:03.331Z,41.10
2018-06-16T19:04:31.460Z,41.10
2018-06-16T19:06:59.608Z,41.30
2018-06-16T19:09:27.711Z,41.30
2018-06-16T19:11:55.811Z,41.30
2018-06-16T19:14:23.887Z,41.50
2018-06-16T19:16:52.071Z,41.50
2018-06-16T19:24:16.035Z,41.60
2018-06-16T19:26:44.151Z,41.80
2018-06-16T19:31:40.195Z,42.10
2018-06-16T19:34:08.291Z,42.10
2018-06-16T19:36:36.383Z,42.20
2018-06-16T19:39:07.110Z,42.30
2018-06-16T19:41:35.212Z,42.30
2018-06-16T19:44:03.291Z,42.50
2018-06-16T19:51:27.285Z,42.60
2018-06-16T19:56:23.334Z,42.80
2018-06-16T19:58:51.423Z,42.70
2018-06-16T20:01:19.528Z,42.80
2018-06-16T20:03:47.628Z,42.80
2018-06-16T20:06:15.727Z,42.90
2018-06-16T20:08:43.819Z,42.90
2018-06-16T20:11:11.911Z,43.50
2018-06-16T20:13:40.025Z,42.90
2018-06-16T20:16:08.132Z,43.00
2018-06-16T20:18:36.265Z,42.90
2018-06-16T20:21:04.375Z,42.90
2018-06-16T20:23:32.466Z,43.00
2018-06-16T20:26:00.576Z,43.00
2018-06-16T20:28:28.688Z,43.10
2018-06-16T20:30:56.994Z,43.00
2018-06-16T20:33:25.096Z,43.20
2018-06-16T20:35:53.213Z,43.10
2018-06-16T20:40:49.512Z,43.40
2018-06-16T20:45:46.071Z,43.50
2018-06-16T20:48:14.293Z,43.60
2018-06-16T20:50:42.371Z,43.70
2018-06-16T20:53:10.481Z,43.80
2018-06-16T20:55:38.672Z,44.00
2018-06-16T20:58:07.551Z,43.90
2018-06-16T21:05:31.463Z,44.50
2018-06-16T21:07:59.576Z,44.80
2018-06-16T21:10:27.672Z,44.90
2018-06-16T21:12:56.788Z,44.80
2018-06-16T21:15:24.963Z,44.80
2018-06-16T21:17:53.056Z,45.00
2018-06-16T21:20:21.152Z,45.00
2018-06-16T21:25:23.840Z,45.20
2018-06-16T21:27:58.311Z,45.20
2018-06-16T21:30:26.409Z,45.30
2018-06-16T21:32:54.470Z,45.30
2018-06-16T21:35:29.209Z,45.40
2018-06-16T21:37:57.292Z,45.50
2018-06-16T21:40:25.504Z,45.60
2018-06-16T21:42:53.579Z,45.50
2018-06-16T21:45:21.670Z,45.40
2018-06-16T21:50:18.526Z,45.80
2018-06-16T21:52:46.668Z,46.00
2018-06-16T22:00:12.451Z,46.00
2018-06-16T22:02:40.540Z,46.10
2018-06-16T22:05:08.863Z,46.60
2018-06-16T22:07:36.956Z,46.20
2018-06-16T22:10:05.719Z,46.00
2018-06-16T22:15:01.723Z,46.60
2018-06-16T22:17:29.825Z,46.80
2018-06-16T22:19:57.932Z,47.00
2018-06-16T22:22:26.016Z,47.20
2018-06-16T22:27:35.305Z,47.10
2018-06-16T22:30:03.504Z,47.00
2018-06-16T22:32:31.588Z,47.00
2018-06-16T22:37:27.731Z,46.90
2018-06-16T22:39:55.824Z,47.00
2018-06-16T22:42:23.933Z,47.20
2018-06-16T22:44:52.048Z,47.20
2018-06-16T22:47:20.152Z,47.00
2018-06-16T22:49:48.284Z,47.00
2018-06-16T22:52:16.495Z,47.20
2018-06-16T22:54:44.606Z,47.20
2018-06-16T22:57:12.708Z,47.10
2018-06-16T22:59:40.828Z,47.40
2018-06-16T23:02:09.144Z,47.30
2018-06-16T23:04:37.212Z,47.40
2018-06-16T23:07:05.314Z,47.40
2018-06-16T23:09:33.399Z,47.40
2018-06-16T23:12:01.492Z,47.50
2018-06-16T23:14:29.580Z,47.50
2018-06-16T23:16:57.662Z,47.50
2018-06-16T23:19:25.898Z,47.80
2018-06-16T23:21:54.004Z,47.40
2018-06-16T23:24:22.112Z,47.40
2018-06-16T23:26:50.216Z,47.80
2018-06-16T23:29:18.361Z,47.60
2018-06-16T23:31:46.441Z,47.40
2018-06-16T23:34:14.520Z,47.40
2018-06-16T23:36:42.610Z,47.70
2018-06-16T23:39:12.324Z,48.00
2018-06-16T23:41:40.816Z,48.60
2018-06-16T23:44:08.923Z,48.10
2018-06-16T23:46:37.430Z,48.50
2018-06-16T23:49:05.940Z,49.10
2018-06-16T23:51:34.068Z,49.60
2018-06-16T23:56:30.065Z,50.70
